sensor_id;sensor_type;location;lat;lon;timestamp;P1;durP1;ratioP1;P2;durP2;ratioP2
9032;SDS011;4551;53.164;8.210;2022-07-10T00:00:07;3.67;;;1.77;;
9032;SDS011;4551;53.164;8.210;2022-07-10T00:02:37;4.10;;;1.30;;
9032;SDS011;4551;53.164;8.210;2022-07-10T00:05:05;5.33;;;1.40;;
9032;SDS011;4551;53.164;8.210;2022-07-10T00:07:34;7.90;;;1.57;;
9032;SDS011;4551;53.164;8.210;2022-07-10T00:10:03;3.83;;;1.27;;
9032;SDS011;4551;53.164;8.210;2022-07-10T00:12:31;4.20;;;1.33;;
9032;SDS011;4551;53.164;8.210;2022-07-10T00:15:01;5.90;;;1.60;;
9032;SDS011;4551;53.164;8.210;2022-07-10T00:17:29;3.30;;;1.30;;
9032;SDS011;4551;53.164;8.210;2022-07-10T00:19:58;6.40;;;1.40;;
9032;SDS011;4551;53.164;8.210;2022-07-10T00:22:28;3.07;;;1.30;;
9032;SDS011;4551;53.164;8.210;2022-07-10T00:24:56;4.87;;;1.40;;
9032;SDS011;4551;53.164;8.210;2022-07-10T00:27:24;4.83;;;1.37;;
9032;SDS011;4551;53.164;8.210;2022-07-10T00:29:52;3.73;;;1.20;;
9032;SDS011;4551;53.164;8.210;2022-07-10T00:32:22;3.67;;;1.13;;
9032;SDS011;4551;53.164;8.210;2022-07-10T00:34:50;4.90;;;1.43;;
9032;SDS011;4551;53.164;8.210;2022-07-10T00:37:18;3.07;;;1.40;;
9032;SDS011;4551;53.164;8.210;2022-07-10T00:39:47;5.13;;;1.40;;
9032;SDS011;4551;53.164;8.210;2022-07-10T00:42:16;6.30;;;1.50;;
9032;SDS011;4551;53.164;8.210;2022-07-10T00:44:44;3.80;;;1.53;;
9032;SDS011;4551;53.164;8.210;2022-07-10T00:47:12;3.67;;;1.60;;
9032;SDS011;4551;53.164;8.210;2022-07-10T00:49:45;5.87;;;1.40;;
9032;SDS011;4551;53.164;8.210;2022-07-10T00:52:14;5.70;;;1.33;;
9032;SDS011;4551;53.164;8.210;2022-07-10T00:54:43;5.33;;;1.20;;
9032;SDS011;4551;53.164;8.210;2022-07-10T00:57:13;3.33;;;1.17;;
9032;SDS011;4551;53.164;8.210;2022-07-10T00:59:43;5.80;;;1.30;;
9032;SDS011;4551;53.164;8.210;2022-07-10T01:02:11;2.87;;;1.40;;
9032;SDS011;4551;53.164;8.210;2022-07-10T01:04:41;10.47;;;1.70;;
9032;SDS011;4551;53.164;8.210;2022-07-10T01:07:11;5.77;;;1.83;;
9032;SDS011;4551;53.164;8.210;2022-07-10T01:09:42;5.97;;;1.40;;
9032;SDS011;4551;53.164;8.210;2022-07-10T01:12:11;5.33;;;1.77;;
9032;SDS011;4551;53.164;8.210;2022-07-10T01:14:40;5.10;;;1.10;;
9032;SDS011;4551;53.164;8.210;2022-07-10T01:17:08;4.33;;;0.93;;
9032;SDS011;4551;53.164;8.210;2022-07-10T01:19:38;4.93;;;1.10;;
9032;SDS011;4551;53.164;8.210;2022-07-10T01:22:08;6.03;;;1.40;;
9032;SDS011;4551;53.164;8.210;2022-07-10T01:24:36;2.40;;;1.53;;
9032;SDS011;4551;53.164;8.210;2022-07-10T01:27:05;3.70;;;1.10;;
9032;SDS011;4551;53.164;8.210;2022-07-10T01:29:34;4.90;;;1.63;;
9032;SDS011;4551;53.164;8.210;2022-07-10T01:32:03;2.00;;;1.03;;
9032;SDS011;4551;53.164;8.210;2022-07-10T01:34:32;2.83;;;0.67;;
9032;SDS011;4551;53.164;8.210;2022-07-10T01:37:00;3.37;;;1.10;;
9032;SDS011;4551;53.164;8.210;2022-07-10T01:39:30;6.07;;;1.03;;
9032;SDS011;4551;53.164;8.210;2022-07-10T01:41:58;3.37;;;1.30;;
9032;SDS011;4551;53.164;8.210;2022-07-10T01:44:27;4.57;;;1.80;;
9032;SDS011;4551;53.164;8.210;2022-07-10T01:46:55;3.57;;;1.40;;
9032;SDS011;4551;53.164;8.210;2022-07-10T01:49:23;4.63;;;1.63;;
9032;SDS011;4551;53.164;8.210;2022-07-10T01:51:51;3.87;;;1.07;;
9032;SDS011;4551;53.164;8.210;2022-07-10T01:54:19;3.43;;;1.30;;
9032;SDS011;4551;53.164;8.210;2022-07-10T01:56:49;7.27;;;2.20;;
9032;SDS011;4551;53.164;8.210;2022-07-10T01:59:17;4.73;;;1.37;;
9032;SDS011;4551;53.164;8.210;2022-07-10T02:01:45;4.47;;;1.60;;
9032;SDS011;4551;53.164;8.210;2022-07-10T02:04:13;5.27;;;1.70;;
9032;SDS011;4551;53.164;8.210;2022-07-10T02:06:58;5.37;;;1.47;;
9032;SDS011;4551;53.164;8.210;2022-07-10T02:09:27;4.13;;;1.17;;
9032;SDS011;4551;53.164;8.210;2022-07-10T02:11:56;4.37;;;1.57;;
9032;SDS011;4551;53.164;8.210;2022-07-10T02:14:24;4.83;;;1.90;;
9032;SDS011;4551;53.164;8.210;2022-07-10T02:16:54;6.87;;;1.60;;
9032;SDS011;4551;53.164;8.210;2022-07-10T02:19:22;6.60;;;1.90;;
9032;SDS011;4551;53.164;8.210;2022-07-10T02:21:51;6.60;;;2.03;;
9032;SDS011;4551;53.164;8.210;2022-07-10T02:24:19;4.13;;;1.90;;
9032;SDS011;4551;53.164;8.210;2022-07-10T02:26:47;4.10;;;1.47;;
9032;SDS011;4551;53.164;8.210;2022-07-10T02:29:17;5.63;;;1.70;;
9032;SDS011;4551;53.164;8.210;2022-07-10T02:31:45;7.33;;;1.90;;
9032;SDS011;4551;53.164;8.210;2022-07-10T02:34:14;5.50;;;1.90;;
9032;SDS011;4551;53.164;8.210;2022-07-10T02:36:42;4.43;;;1.63;;
9032;SDS011;4551;53.164;8.210;2022-07-10T02:39:10;5.03;;;2.10;;
9032;SDS011;4551;53.164;8.210;2022-07-10T02:41:39;6.13;;;2.40;;
9032;SDS011;4551;53.164;8.210;2022-07-10T02:44:07;4.73;;;2.07;;
9032;SDS011;4551;53.164;8.210;2022-07-10T02:46:36;7.43;;;1.97;;
9032;SDS011;4551;53.164;8.210;2022-07-10T02:49:05;6.67;;;1.67;;
9032;SDS011;4551;53.164;8.210;2022-07-10T02:51:33;2.30;;;1.57;;
9032;SDS011;4551;53.164;8.210;2022-07-10T02:54:01;4.87;;;1.67;;
9032;SDS011;4551;53.164;8.210;2022-07-10T02:56:29;4.47;;;1.40;;
9032;SDS011;4551;53.164;8.210;2022-07-10T02:58:58;4.10;;;1.40;;
9032;SDS011;4551;53.164;8.210;2022-07-10T03:01:26;4.83;;;1.17;;
9032;SDS011;4551;53.164;8.210;2022-07-10T03:03:56;4.40;;;1.10;;
9032;SDS011;4551;53.164;8.210;2022-07-10T03:06:24;4.83;;;1.60;;
9032;SDS011;4551;53.164;8.210;2022-07-10T03:08:52;2.97;;;1.27;;
9032;SDS011;4551;53.164;8.210;2022-07-10T03:11:20;4.63;;;1.30;;
9032;SDS011;4551;53.164;8.210;2022-07-10T03:13:48;4.00;;;1.27;;
9032;SDS011;4551;53.164;8.210;2022-07-10T03:16:17;4.27;;;1.57;;
9032;SDS011;4551;53.164;8.210;2022-07-10T03:18:45;7.90;;;1.87;;
9032;SDS011;4551;53.164;8.210;2022-07-10T03:21:15;7.47;;;1.50;;
9032;SDS011;4551;53.164;8.210;2022-07-10T03:23:43;5.33;;;1.83;;
9032;SDS011;4551;53.164;8.210;2022-07-10T03:26:11;5.83;;;1.30;;
9032;SDS011;4551;53.164;8.210;2022-07-10T03:28:39;2.97;;;1.07;;
9032;SDS011;4551;53.164;8.210;2022-07-10T03:31:08;7.77;;;2.00;;
9032;SDS011;4551;53.164;8.210;2022-07-10T03:33:36;3.50;;;1.63;;
9032;SDS011;4551;53.164;8.210;2022-07-10T03:36:05;3.50;;;1.20;;
9032;SDS011;4551;53.164;8.210;2022-07-10T03:38:35;6.27;;;1.43;;
9032;SDS011;4551;53.164;8.210;2022-07-10T03:41:03;5.83;;;1.57;;
9032;SDS011;4551;53.164;8.210;2022-07-10T03:43:31;5.23;;;1.30;;
9032;SDS011;4551;53.164;8.210;2022-07-10T03:46:00;6.37;;;1.60;;
9032;SDS011;4551;53.164;8.210;2022-07-10T03:48:28;5.20;;;1.80;;
9032;SDS011;4551;53.164;8.210;2022-07-10T03:50:56;6.43;;;1.43;;
9032;SDS011;4551;53.164;8.210;2022-07-10T03:53:25;7.13;;;1.60;;
9032;SDS011;4551;53.164;8.210;2022-07-10T03:55:54;5.27;;;1.60;;
9032;SDS011;4551;53.164;8.210;2022-07-10T03:58:23;4.00;;;1.23;;
9032;SDS011;4551;53.164;8.210;2022-07-10T04:00:50;5.90;;;1.60;;
9032;SDS011;4551;53.164;8.210;2022-07-10T04:03:18;6.67;;;1.73;;
9032;SDS011;4551;53.164;8.210;2022-07-10T04:05:46;3.43;;;1.70;;
9032;SDS011;4551;53.164;8.210;2022-07-10T04:08:14;4.70;;;1.70;;
9032;SDS011;4551;53.164;8.210;2022-07-10T04:10:43;7.50;;;3.10;;
9032;SDS011;4551;53.164;8.210;2022-07-10T04:13:12;5.20;;;1.83;;
9032;SDS011;4551;53.164;8.210;2022-07-10T04:15:40;5.83;;;2.00;;
9032;SDS011;4551;53.164;8.210;2022-07-10T04:18:09;10.10;;;2.37;;
9032;SDS011;4551;53.164;8.210;2022-07-10T04:20:37;5.53;;;1.77;;
9032;SDS011;4551;53.164;8.210;2022-07-10T04:23:05;7.50;;;2.00;;
9032;SDS011;4551;53.164;8.210;2022-07-10T04:25:33;3.07;;;1.40;;
9032;SDS011;4551;53.164;8.210;2022-07-10T04:28:01;6.90;;;1.60;;
9032;SDS011;4551;53.164;8.210;2022-07-10T04:30:31;7.00;;;1.63;;
9032;SDS011;4551;53.164;8.210;2022-07-10T04:32:59;5.47;;;1.33;;
9032;SDS011;4551;53.164;8.210;2022-07-10T04:35:27;3.83;;;1.27;;
9032;SDS011;4551;53.164;8.210;2022-07-10T04:37:55;3.67;;;1.63;;
9032;SDS011;4551;53.164;8.210;2022-07-10T04:40:23;7.77;;;1.60;;
9032;SDS011;4551;53.164;8.210;2022-07-10T04:42:52;3.73;;;1.50;;
9032;SDS011;4551;53.164;8.210;2022-07-10T04:45:20;6.23;;;1.57;;
9032;SDS011;4551;53.164;8.210;2022-07-10T04:47:50;3.37;;;1.27;;
9032;SDS011;4551;53.164;8.210;2022-07-10T04:50:18;5.90;;;1.60;;
9032;SDS011;4551;53.164;8.210;2022-07-10T04:52:46;3.17;;;1.47;;
9032;SDS011;4551;53.164;8.210;2022-07-10T04:55:14;4.73;;;1.30;;
9032;SDS011;4551;53.164;8.210;2022-07-10T04:57:42;3.60;;;1.30;;
9032;SDS011;4551;53.164;8.210;2022-07-10T05:00:11;6.17;;;1.30;;
9032;SDS011;4551;53.164;8.210;2022-07-10T05:02:41;5.70;;;1.80;;
9032;SDS011;4551;53.164;8.210;2022-07-10T05:05:11;5.43;;;1.90;;
9032;SDS011;4551;53.164;8.210;2022-07-10T05:07:39;7.90;;;1.63;;
9032;SDS011;4551;53.164;8.210;2022-07-10T05:10:07;6.53;;;2.00;;
9032;SDS011;4551;53.164;8.210;2022-07-10T05:12:36;5.60;;;1.30;;
9032;SDS011;4551;53.164;8.210;2022-07-10T05:15:05;7.30;;;2.20;;
9032;SDS011;4551;53.164;8.210;2022-07-10T05:17:34;5.83;;;1.33;;
9032;SDS011;4551;53.164;8.210;2022-07-10T05:20:02;6.40;;;1.80;;
9032;SDS011;4551;53.164;8.210;2022-07-10T05:22:32;5.87;;;2.50;;
9032;SDS011;4551;53.164;8.210;2022-07-10T05:25:00;6.60;;;1.77;;
9032;SDS011;4551;53.164;8.210;2022-07-10T05:27:29;7.67;;;1.70;;
9032;SDS011;4551;53.164;8.210;2022-07-10T05:29:57;5.50;;;1.50;;
9032;SDS011;4551;53.164;8.210;2022-07-10T05:32:25;7.93;;;2.03;;
9032;SDS011;4551;53.164;8.210;2022-07-10T05:34:53;5.23;;;1.60;;
9032;SDS011;4551;53.164;8.210;2022-07-10T05:37:24;5.73;;;1.67;;
9032;SDS011;4551;53.164;8.210;2022-07-10T05:39:53;6.00;;;1.60;;
9032;SDS011;4551;53.164;8.210;2022-07-10T05:42:22;8.63;;;3.07;;
9032;SDS011;4551;53.164;8.210;2022-07-10T05:44:50;3.57;;;1.60;;
9032;SDS011;4551;53.164;8.210;2022-07-10T05:47:18;4.90;;;1.50;;
9032;SDS011;4551;53.164;8.210;2022-07-10T05:49:46;7.40;;;2.03;;
9032;SDS011;4551;53.164;8.210;2022-07-10T05:52:14;5.73;;;1.40;;
9032;SDS011;4551;53.164;8.210;2022-07-10T05:54:42;4.63;;;1.83;;
9032;SDS011;4551;53.164;8.210;2022-07-10T05:57:12;1.83;;;1.33;;
9032;SDS011;4551;53.164;8.210;2022-07-10T05:59:40;5.10;;;1.37;;
9032;SDS011;4551;53.164;8.210;2022-07-10T06:02:08;6.60;;;2.20;;
9032;SDS011;4551;53.164;8.210;2022-07-10T06:04:37;8.60;;;2.03;;
9032;SDS011;4551;53.164;8.210;2022-07-10T06:07:05;7.73;;;1.70;;
9032;SDS011;4551;53.164;8.210;2022-07-10T06:09:34;4.40;;;1.57;;
9032;SDS011;4551;53.164;8.210;2022-07-10T06:12:02;7.20;;;1.93;;
9032;SDS011;4551;53.164;8.210;2022-07-10T06:14:32;9.83;;;2.10;;
9032;SDS011;4551;53.164;8.210;2022-07-10T06:17:00;11.13;;;2.03;;
9032;SDS011;4551;53.164;8.210;2022-07-10T06:19:28;4.33;;;1.50;;
9032;SDS011;4551;53.164;8.210;2022-07-10T06:21:56;8.50;;;1.90;;
9032;SDS011;4551;53.164;8.210;2022-07-10T06:24:41;1.77;;;1.20;;
9032;SDS011;4551;53.164;8.210;2022-07-10T06:27:09;7.67;;;1.57;;
9032;SDS011;4551;53.164;8.210;2022-07-10T06:29:39;5.37;;;1.90;;
9032;SDS011;4551;53.164;8.210;2022-07-10T06:32:08;5.83;;;1.80;;
9032;SDS011;4551;53.164;8.210;2022-07-10T06:34:36;8.70;;;2.13;;
9032;SDS011;4551;53.164;8.210;2022-07-10T06:37:05;4.00;;;1.80;;
9032;SDS011;4551;53.164;8.210;2022-07-10T06:39:33;4.70;;;1.70;;
9032;SDS011;4551;53.164;8.210;2022-07-10T06:42:02;7.73;;;2.07;;
9032;SDS011;4551;53.164;8.210;2022-07-10T06:44:31;5.87;;;1.67;;
9032;SDS011;4551;53.164;8.210;2022-07-10T06:47:00;5.87;;;1.57;;
9032;SDS011;4551;53.164;8.210;2022-07-10T06:49:46;7.47;;;1.57;;
9032;SDS011;4551;53.164;8.210;2022-07-10T06:52:18;7.10;;;1.67;;
9032;SDS011;4551;53.164;8.210;2022-07-10T06:54:46;5.67;;;1.53;;
9032;SDS011;4551;53.164;8.210;2022-07-10T06:57:15;6.13;;;2.17;;
9032;SDS011;4551;53.164;8.210;2022-07-10T06:59:44;8.10;;;1.90;;
9032;SDS011;4551;53.164;8.210;2022-07-10T07:02:14;5.40;;;1.70;;
9032;SDS011;4551;53.164;8.210;2022-07-10T07:04:42;5.43;;;1.80;;
9032;SDS011;4551;53.164;8.210;2022-07-10T07:07:11;3.63;;;1.60;;
9032;SDS011;4551;53.164;8.210;2022-07-10T07:09:40;6.57;;;1.57;;
9032;SDS011;4551;53.164;8.210;2022-07-10T07:12:08;8.93;;;1.90;;
9032;SDS011;4551;53.164;8.210;2022-07-10T07:14:37;6.97;;;1.90;;
9032;SDS011;4551;53.164;8.210;2022-07-10T07:17:10;6.93;;;1.90;;
9032;SDS011;4551;53.164;8.210;2022-07-10T07:19:42;8.17;;;1.77;;
9032;SDS011;4551;53.164;8.210;2022-07-10T07:22:27;7.20;;;1.50;;
9032;SDS011;4551;53.164;8.210;2022-07-10T07:25:13;5.10;;;1.83;;
9032;SDS011;4551;53.164;8.210;2022-07-10T07:27:41;7.67;;;2.07;;
9032;SDS011;4551;53.164;8.210;2022-07-10T07:30:10;6.60;;;1.70;;
9032;SDS011;4551;53.164;8.210;2022-07-10T07:32:41;3.13;;;1.80;;
9032;SDS011;4551;53.164;8.210;2022-07-10T07:35:12;8.27;;;2.27;;
9032;SDS011;4551;53.164;8.210;2022-07-10T07:37:41;3.57;;;2.10;;
9032;SDS011;4551;53.164;8.210;2022-07-10T07:40:12;8.83;;;2.03;;
9032;SDS011;4551;53.164;8.210;2022-07-10T07:42:41;7.03;;;1.50;;
9032;SDS011;4551;53.164;8.210;2022-07-10T07:45:10;7.23;;;1.97;;
9032;SDS011;4551;53.164;8.210;2022-07-10T07:47:45;9.80;;;2.00;;
9032;SDS011;4551;53.164;8.210;2022-07-10T07:50:15;3.77;;;1.90;;
9032;SDS011;4551;53.164;8.210;2022-07-10T07:52:45;6.70;;;2.13;;
9032;SDS011;4551;53.164;8.210;2022-07-10T07:55:15;5.60;;;1.80;;
9032;SDS011;4551;53.164;8.210;2022-07-10T07:57:44;7.87;;;2.00;;
9032;SDS011;4551;53.164;8.210;2022-07-10T08:00:14;7.10;;;1.93;;
9032;SDS011;4551;53.164;8.210;2022-07-10T08:02:44;4.27;;;1.50;;
9032;SDS011;4551;53.164;8.210;2022-07-10T08:05:12;7.40;;;2.47;;
9032;SDS011;4551;53.164;8.210;2022-07-10T08:07:42;7.90;;;1.90;;
9032;SDS011;4551;53.164;8.210;2022-07-10T08:10:13;8.87;;;2.33;;
9032;SDS011;4551;53.164;8.210;2022-07-10T08:12:42;8.00;;;1.70;;
9032;SDS011;4551;53.164;8.210;2022-07-10T08:15:13;6.03;;;2.00;;
9032;SDS011;4551;53.164;8.210;2022-07-10T08:17:42;3.90;;;2.00;;
9032;SDS011;4551;53.164;8.210;2022-07-10T08:20:14;6.40;;;2.03;;
9032;SDS011;4551;53.164;8.210;2022-07-10T08:22:43;4.63;;;1.83;;
9032;SDS011;4551;53.164;8.210;2022-07-10T08:25:12;6.10;;;1.60;;
9032;SDS011;4551;53.164;8.210;2022-07-10T08:27:41;3.90;;;2.40;;
9032;SDS011;4551;53.164;8.210;2022-07-10T08:30:10;6.33;;;1.80;;
9032;SDS011;4551;53.164;8.210;2022-07-10T08:32:39;6.23;;;1.60;;
9032;SDS011;4551;53.164;8.210;2022-07-10T08:35:08;4.17;;;1.60;;
9032;SDS011;4551;53.164;8.210;2022-07-10T08:37:37;4.60;;;1.50;;
9032;SDS011;4551;53.164;8.210;2022-07-10T08:40:11;4.60;;;1.73;;
9032;SDS011;4551;53.164;8.210;2022-07-10T08:42:41;4.93;;;1.57;;
9032;SDS011;4551;53.164;8.210;2022-07-10T08:45:11;8.60;;;1.90;;
9032;SDS011;4551;53.164;8.210;2022-07-10T08:47:40;5.03;;;2.20;;
9032;SDS011;4551;53.164;8.210;2022-07-10T08:50:17;6.50;;;2.13;;
9032;SDS011;4551;53.164;8.210;2022-07-10T08:52:52;4.13;;;1.70;;
9032;SDS011;4551;53.164;8.210;2022-07-10T08:55:26;4.13;;;1.60;;
9032;SDS011;4551;53.164;8.210;2022-07-10T08:57:54;3.83;;;1.30;;
9032;SDS011;4551;53.164;8.210;2022-07-10T09:00:23;4.67;;;1.43;;
9032;SDS011;4551;53.164;8.210;2022-07-10T09:02:52;3.47;;;1.60;;
9032;SDS011;4551;53.164;8.210;2022-07-10T09:05:22;6.20;;;2.17;;
9032;SDS011;4551;53.164;8.210;2022-07-10T09:07:52;5.57;;;1.67;;
9032;SDS011;4551;53.164;8.210;2022-07-10T09:10:21;8.07;;;1.90;;
9032;SDS011;4551;53.164;8.210;2022-07-10T09:12:55;7.27;;;2.40;;
9032;SDS011;4551;53.164;8.210;2022-07-10T09:15:24;5.30;;;1.97;;
9032;SDS011;4551;53.164;8.210;2022-07-10T09:17:56;6.70;;;1.73;;
9032;SDS011;4551;53.164;8.210;2022-07-10T09:20:28;12.10;;;2.37;;
9032;SDS011;4551;53.164;8.210;2022-07-10T09:22:59;5.03;;;1.73;;
9032;SDS011;4551;53.164;8.210;2022-07-10T09:25:37;5.67;;;2.17;;
9032;SDS011;4551;53.164;8.210;2022-07-10T09:28:09;5.67;;;2.13;;
9032;SDS011;4551;53.164;8.210;2022-07-10T09:30:38;4.17;;;1.40;;
9032;SDS011;4551;53.164;8.210;2022-07-10T09:33:14;4.10;;;1.57;;
9032;SDS011;4551;53.164;8.210;2022-07-10T09:35:54;4.13;;;1.50;;
9032;SDS011;4551;53.164;8.210;2022-07-10T09:41:24;4.17;;;1.60;;
9032;SDS011;4551;53.164;8.210;2022-07-10T09:43:56;3.30;;;1.80;;
9032;SDS011;4551;53.164;8.210;2022-07-10T09:46:28;4.43;;;1.77;;
9032;SDS011;4551;53.164;8.210;2022-07-10T09:49:05;6.20;;;1.83;;
9032;SDS011;4551;53.164;8.210;2022-07-10T09:51:38;6.67;;;2.10;;
9032;SDS011;4551;53.164;8.210;2022-07-10T09:54:14;8.03;;;1.90;;
9032;SDS011;4551;53.164;8.210;2022-07-10T09:56:43;5.60;;;1.80;;
9032;SDS011;4551;53.164;8.210;2022-07-10T09:59:15;7.90;;;2.40;;
9032;SDS011;4551;53.164;8.210;2022-07-10T10:01:45;4.53;;;1.80;;
9032;SDS011;4551;53.164;8.210;2022-07-10T10:04:15;6.23;;;2.50;;
9032;SDS011;4551;53.164;8.210;2022-07-10T10:06:45;4.37;;;1.63;;
9032;SDS011;4551;53.164;8.210;2022-07-10T10:09:18;7.03;;;2.57;;
9032;SDS011;4551;53.164;8.210;2022-07-10T10:11:51;7.47;;;1.93;;
9032;SDS011;4551;53.164;8.210;2022-07-10T10:14:25;5.73;;;1.97;;
9032;SDS011;4551;53.164;8.210;2022-07-10T10:16:56;7.83;;;2.30;;
9032;SDS011;4551;53.164;8.210;2022-07-10T10:19:26;4.30;;;1.77;;
9032;SDS011;4551;53.164;8.210;2022-07-10T10:22:15;7.60;;;1.90;;
9032;SDS011;4551;53.164;8.210;2022-07-10T10:24:46;4.80;;;2.00;;
9032;SDS011;4551;53.164;8.210;2022-07-10T10:27:15;8.13;;;1.93;;
9032;SDS011;4551;53.164;8.210;2022-07-10T10:29:46;4.50;;;1.77;;
9032;SDS011;4551;53.164;8.210;2022-07-10T10:32:16;3.30;;;1.70;;
9032;SDS011;4551;53.164;8.210;2022-07-10T10:34:44;6.80;;;1.70;;
9032;SDS011;4551;53.164;8.210;2022-07-10T10:37:35;7.33;;;1.60;;
9032;SDS011;4551;53.164;8.210;2022-07-10T10:40:06;4.63;;;1.80;;
9032;SDS011;4551;53.164;8.210;2022-07-10T10:42:36;4.10;;;1.93;;
9032;SDS011;4551;53.164;8.210;2022-07-10T10:45:25;4.83;;;1.77;;
9032;SDS011;4551;53.164;8.210;2022-07-10T10:48:00;6.63;;;1.53;;
9032;SDS011;4551;53.164;8.210;2022-07-10T10:50:49;5.83;;;1.70;;
9032;SDS011;4551;53.164;8.210;2022-07-10T10:53:19;4.10;;;1.57;;
9032;SDS011;4551;53.164;8.210;2022-07-10T10:58:50;2.97;;;1.80;;
9032;SDS011;4551;53.164;8.210;2022-07-10T11:01:27;10.20;;;1.97;;
9032;SDS011;4551;53.164;8.210;2022-07-10T11:04:17;2.83;;;1.57;;
9032;SDS011;4551;53.164;8.210;2022-07-10T11:06:47;5.53;;;2.10;;
9032;SDS011;4551;53.164;8.210;2022-07-10T11:09:23;4.40;;;2.00;;
9032;SDS011;4551;53.164;8.210;2022-07-10T11:12:02;5.90;;;2.20;;
9032;SDS011;4551;53.164;8.210;2022-07-10T11:14:33;6.03;;;1.53;;
9032;SDS011;4551;53.164;8.210;2022-07-10T11:17:04;6.57;;;1.47;;
9032;SDS011;4551;53.164;8.210;2022-07-10T11:19:35;8.83;;;2.47;;
9032;SDS011;4551;53.164;8.210;2022-07-10T11:22:11;4.57;;;1.70;;
9032;SDS011;4551;53.164;8.210;2022-07-10T11:25:00;4.57;;;1.80;;
9032;SDS011;4551;53.164;8.210;2022-07-10T11:27:36;7.27;;;1.83;;
9032;SDS011;4551;53.164;8.210;2022-07-10T11:30:28;6.20;;;1.73;;
9032;SDS011;4551;53.164;8.210;2022-07-10T11:33:03;8.90;;;2.07;;
9032;SDS011;4551;53.164;8.210;2022-07-10T11:35:32;4.23;;;1.90;;
9032;SDS011;4551;53.164;8.210;2022-07-10T11:38:00;3.77;;;1.63;;
9032;SDS011;4551;53.164;8.210;2022-07-10T11:40:28;6.93;;;1.80;;
9032;SDS011;4551;53.164;8.210;2022-07-10T11:42:57;5.00;;;1.50;;
9032;SDS011;4551;53.164;8.210;2022-07-10T11:45:27;2.07;;;1.27;;
9032;SDS011;4551;53.164;8.210;2022-07-10T11:47:56;1.63;;;0.90;;
9032;SDS011;4551;53.164;8.210;2022-07-10T11:50:27;3.33;;;1.50;;
9032;SDS011;4551;53.164;8.210;2022-07-10T11:53:01;3.90;;;1.50;;
9032;SDS011;4551;53.164;8.210;2022-07-10T11:55:30;5.10;;;1.20;;
9032;SDS011;4551;53.164;8.210;2022-07-10T11:58:15;2.47;;;0.97;;
9032;SDS011;4551;53.164;8.210;2022-07-10T12:00:55;3.00;;;1.50;;
9032;SDS011;4551;53.164;8.210;2022-07-10T12:03:25;4.27;;;1.13;;
9032;SDS011;4551;53.164;8.210;2022-07-10T12:06:00;5.47;;;2.03;;
9032;SDS011;4551;53.164;8.210;2022-07-10T12:08:29;3.73;;;1.40;;
9032;SDS011;4551;53.164;8.210;2022-07-10T12:11:10;3.20;;;1.03;;
9032;SDS011;4551;53.164;8.210;2022-07-10T12:13:39;2.97;;;1.50;;
9032;SDS011;4551;53.164;8.210;2022-07-10T12:16:07;3.87;;;1.20;;
9032;SDS011;4551;53.164;8.210;2022-07-10T12:18:36;4.70;;;2.30;;
9032;SDS011;4551;53.164;8.210;2022-07-10T12:21:09;3.63;;;1.20;;
9032;SDS011;4551;53.164;8.210;2022-07-10T12:23:38;2.70;;;2.13;;
9032;SDS011;4551;53.164;8.210;2022-07-10T12:26:08;3.07;;;1.00;;
9032;SDS011;4551;53.164;8.210;2022-07-10T12:28:50;1.03;;;0.90;;
9032;SDS011;4551;53.164;8.210;2022-07-10T12:31:22;3.17;;;0.70;;
9032;SDS011;4551;53.164;8.210;2022-07-10T12:33:52;1.93;;;1.20;;
9032;SDS011;4551;53.164;8.210;2022-07-10T12:36:25;1.80;;;0.53;;
9032;SDS011;4551;53.164;8.210;2022-07-10T12:38:54;2.37;;;0.50;;
9032;SDS011;4551;53.164;8.210;2022-07-10T12:41:24;2.17;;;1.00;;
9032;SDS011;4551;53.164;8.210;2022-07-10T12:43:53;1.93;;;0.90;;
9032;SDS011;4551;53.164;8.210;2022-07-10T12:46:22;1.50;;;0.70;;
9032;SDS011;4551;53.164;8.210;2022-07-10T12:49:01;1.67;;;0.83;;
9032;SDS011;4551;53.164;8.210;2022-07-10T12:51:33;3.00;;;1.00;;
9032;SDS011;4551;53.164;8.210;2022-07-10T12:54:29;7.23;;;1.37;;
9032;SDS011;4551;53.164;8.210;2022-07-10T12:56:58;2.13;;;0.70;;
9032;SDS011;4551;53.164;8.210;2022-07-10T12:59:27;1.30;;;1.00;;
9032;SDS011;4551;53.164;8.210;2022-07-10T13:01:56;2.27;;;1.10;;
9032;SDS011;4551;53.164;8.210;2022-07-10T13:04:25;1.77;;;1.00;;
9032;SDS011;4551;53.164;8.210;2022-07-10T13:06:55;2.70;;;1.17;;
9032;SDS011;4551;53.164;8.210;2022-07-10T13:09:40;3.67;;;0.93;;
9032;SDS011;4551;53.164;8.210;2022-07-10T13:12:10;1.93;;;0.97;;
9032;SDS011;4551;53.164;8.210;2022-07-10T13:14:38;1.80;;;0.67;;
9032;SDS011;4551;53.164;8.210;2022-07-10T13:17:06;1.27;;;0.90;;
9032;SDS011;4551;53.164;8.210;2022-07-10T13:19:35;2.67;;;1.20;;
9032;SDS011;4551;53.164;8.210;2022-07-10T13:22:04;1.53;;;1.00;;
9032;SDS011;4551;53.164;8.210;2022-07-10T13:24:32;3.77;;;0.80;;
9032;SDS011;4551;53.164;8.210;2022-07-10T13:27:01;1.40;;;0.87;;
9032;SDS011;4551;53.164;8.210;2022-07-10T13:29:29;3.13;;;1.30;;
9032;SDS011;4551;53.164;8.210;2022-07-10T13:31:58;4.70;;;1.33;;
9032;SDS011;4551;53.164;8.210;2022-07-10T13:34:26;1.23;;;0.73;;
9032;SDS011;4551;53.164;8.210;2022-07-10T13:36:54;2.80;;;0.87;;
9032;SDS011;4551;53.164;8.210;2022-07-10T13:39:24;3.40;;;0.80;;
9032;SDS011;4551;53.164;8.210;2022-07-10T13:41:52;2.50;;;0.70;;
9032;SDS011;4551;53.164;8.210;2022-07-10T13:44:21;2.10;;;0.77;;
9032;SDS011;4551;53.164;8.210;2022-07-10T13:46:49;11.93;;;1.40;;
9032;SDS011;4551;53.164;8.210;2022-07-10T13:49:18;1.27;;;0.53;;
9032;SDS011;4551;53.164;8.210;2022-07-10T13:51:54;2.10;;;0.93;;
9032;SDS011;4551;53.164;8.210;2022-07-10T13:54:22;3.13;;;1.40;;
9032;SDS011;4551;53.164;8.210;2022-07-10T13:56:51;2.57;;;1.03;;
9032;SDS011;4551;53.164;8.210;2022-07-10T13:59:20;2.33;;;0.63;;
9032;SDS011;4551;53.164;8.210;2022-07-10T14:01:48;3.83;;;0.97;;
9032;SDS011;4551;53.164;8.210;2022-07-10T14:04:16;3.97;;;0.70;;
9032;SDS011;4551;53.164;8.210;2022-07-10T14:06:44;1.37;;;0.60;;
9032;SDS011;4551;53.164;8.210;2022-07-10T14:09:12;1.73;;;0.90;;
9032;SDS011;4551;53.164;8.210;2022-07-10T14:11:41;2.20;;;0.80;;
9032;SDS011;4551;53.164;8.210;2022-07-10T14:14:11;6.70;;;1.20;;
9032;SDS011;4551;53.164;8.210;2022-07-10T14:16:40;1.77;;;1.00;;
9032;SDS011;4551;53.164;8.210;2022-07-10T14:19:09;2.13;;;0.97;;
9032;SDS011;4551;53.164;8.210;2022-07-10T14:21:39;2.73;;;0.77;;
9032;SDS011;4551;53.164;8.210;2022-07-10T14:24:07;2.50;;;0.90;;
9032;SDS011;4551;53.164;8.210;2022-07-10T14:26:35;3.77;;;0.93;;
9032;SDS011;4551;53.164;8.210;2022-07-10T14:29:04;3.50;;;0.83;;
9032;SDS011;4551;53.164;8.210;2022-07-10T14:31:33;1.37;;;0.70;;
9032;SDS011;4551;53.164;8.210;2022-07-10T14:34:02;2.53;;;0.80;;
9032;SDS011;4551;53.164;8.210;2022-07-10T14:36:31;2.13;;;0.90;;
9032;SDS011;4551;53.164;8.210;2022-07-10T14:38:59;1.57;;;0.53;;
9032;SDS011;4551;53.164;8.210;2022-07-10T14:41:28;3.73;;;1.00;;
9032;SDS011;4551;53.164;8.210;2022-07-10T14:43:56;1.47;;;0.60;;
9032;SDS011;4551;53.164;8.210;2022-07-10T14:46:24;1.20;;;0.47;;
9032;SDS011;4551;53.164;8.210;2022-07-10T14:48:56;1.10;;;0.73;;
9032;SDS011;4551;53.164;8.210;2022-07-10T14:51:24;1.50;;;0.80;;
9032;SDS011;4551;53.164;8.210;2022-07-10T14:53:53;2.63;;;0.90;;
9032;SDS011;4551;53.164;8.210;2022-07-10T14:56:22;2.50;;;0.67;;
9032;SDS011;4551;53.164;8.210;2022-07-10T14:58:51;1.97;;;0.57;;
9032;SDS011;4551;53.164;8.210;2022-07-10T15:01:39;0.93;;;0.70;;
9032;SDS011;4551;53.164;8.210;2022-07-10T15:04:09;3.70;;;0.63;;
9032;SDS011;4551;53.164;8.210;2022-07-10T15:06:37;1.60;;;0.60;;
9032;SDS011;4551;53.164;8.210;2022-07-10T15:09:05;2.73;;;0.63;;
9032;SDS011;4551;53.164;8.210;2022-07-10T15:11:33;1.60;;;0.40;;
9032;SDS011;4551;53.164;8.210;2022-07-10T15:14:02;3.87;;;1.10;;
9032;SDS011;4551;53.164;8.210;2022-07-10T15:16:31;1.70;;;0.50;;
9032;SDS011;4551;53.164;8.210;2022-07-10T15:18:59;1.23;;;0.43;;
9032;SDS011;4551;53.164;8.210;2022-07-10T15:21:29;0.43;;;0.40;;
9032;SDS011;4551;53.164;8.210;2022-07-10T15:23:57;1.60;;;0.90;;
9032;SDS011;4551;53.164;8.210;2022-07-10T15:26:26;1.60;;;0.50;;
9032;SDS011;4551;53.164;8.210;2022-07-10T15:28:54;2.47;;;0.70;;
9032;SDS011;4551;53.164;8.210;2022-07-10T15:31:25;1.03;;;0.33;;
9032;SDS011;4551;53.164;8.210;2022-07-10T15:33:53;2.17;;;0.50;;
9032;SDS011;4551;53.164;8.210;2022-07-10T15:36:22;1.13;;;0.67;;
9032;SDS011;4551;53.164;8.210;2022-07-10T15:38:51;6.10;;;0.93;;